Time;durP1;ratioP1;P1;durP2;ratioP2;P2;SDS_P1;SDS_P2;PMS_P1;PMS_P2;Temp;Humidity;BMP_temperature;BMP_pressure;BME280_temperature;BME280_humidity;BME280_pressure;Samples;Min_cycle;Max_cycle;Signal;HPM_P1;HPM_P2
2021/08/01 00:00:25;;;;;;;3.03;1.30;;;20.40;95.80;;;;;;5065635;28;20544;-86
2021/08/01 00:02:52;;;;;;;3.60;1.33;;;20.40;95.70;;;;;;5067535;28;20491;-85
2021/08/01 00:05:19;;;;;;;3.40;1.40;;;20.50;95.90;;;;;;5069307;28;20393;-86
2021/08/01 00:07:45;;;;;;;3.90;1.40;;;20.60;95.80;;;;;;5072542;28;20436;-84
2021/08/01 00:10:12;;;;;;;3.22;1.40;;;20.60;95.80;;;;;;5068465;28;20757;-87
2021/08/01 00:12:40;;;;;;;5.47;1.20;;;20.60;95.20;;;;;;5071549;28;20496;-85
2021/08/01 00:15:08;;;;;;;6.32;1.30;;;20.70;95.30;;;;;;5070751;28;20394;-85
2021/08/01 00:17:35;;;;;;;2.92;1.33;;;20.80;94.70;;;;;;5070559;28;21141;-85
2021/08/01 00:20:02;;;;;;;4.50;1.52;;;20.80;94.90;;;;;;5070180;28;20414;-84
2021/08/01 00:22:29;;;;;;;4.13;1.40;;;20.80;94.50;;;;;;5071175;28;21560;-85
2021/08/01 00:24:57;;;;;;;2.47;1.13;;;20.80;94.70;;;;;;5066246;28;20382;-86
2021/08/01 00:27:24;;;;;;;5.13;1.27;;;20.80;94.60;;;;;;5062416;28;20393;-85
2021/08/01 00:29:50;;;;;;;4.75;1.40;;;20.70;94.90;;;;;;5063556;28;20382;-86
2021/08/01 00:32:17;;;;;;;4.55;1.20;;;20.70;95.10;;;;;;5071342;28;20389;-85
2021/08/01 00:34:44;;;;;;;5.03;1.50;;;20.70;94.70;;;;;;5069164;28;20757;-87
2021/08/01 00:37:11;;;;;;;7.40;1.48;;;20.70;95.00;;;;;;5068734;28;20405;-87
2021/08/01 00:39:38;;;;;;;3.40;1.30;;;20.80;95.40;;;;;;5068208;28;20904;-86
2021/08/01 00:42:07;;;;;;;5.82;1.10;;;20.90;95.40;;;;;;5072116;28;20417;-83
2021/08/01 00:44:34;;;;;;;3.35;1.10;;;21.00;95.70;;;;;;5067479;28;20615;-83
2021/08/01 00:47:01;;;;;;;2.90;1.20;;;21.10;94.80;;;;;;5066187;28;20913;-83
2021/08/01 00:49:28;;;;;;;5.10;1.23;;;21.20;94.10;;;;;;5093098;28;20456;-83
2021/08/01 00:51:55;;;;;;;5.33;1.40;;;21.30;93.90;;;;;;5092105;28;20368;-83
2021/08/01 00:54:24;;;;;;;2.67;1.23;;;21.40;94.30;;;;;;5091893;28;20472;-84
2021/08/01 00:56:51;;;;;;;3.20;1.00;;;21.50;94.10;;;;;;5094438;28;20376;-84
2021/08/01 00:59:18;;;;;;;4.50;1.20;;;21.70;93.50;;;;;;5092217;28;20738;-83
2021/08/01 01:02:03;;;;;;;3.55;1.15;;;21.80;93.70;;;;;;5091615;28;20400;-83
2021/08/01 01:05:08;;;;;;;6.00;1.23;;;21.90;93.30;;;;;;5091267;28;20457;-84
2021/08/01 01:07:58;;;;;;;3.50;1.15;;;21.90;93.00;;;;;;5091467;28;20372;-84
2021/08/01 01:10:41;;;;;;;5.82;1.45;;;21.90;92.60;;;;;;5083757;28;20381;-83
2021/08/01 01:13:23;;;;;;;3.90;1.20;;;21.90;92.90;;;;;;5092160;28;20376;-84
2021/08/01 01:15:54;;;;;;;3.80;1.20;;;21.90;93.00;;;;;;5090891;28;20815;-84
2021/08/01 01:18:32;;;;;;;3.15;1.20;;;21.80;92.70;;;;;;5090522;28;20388;-83
2021/08/01 01:21:05;;;;;;;4.97;1.23;;;21.70;93.00;;;;;;5091370;28;20909;-84
2021/08/01 01:23:46;;;;;;;5.10;1.30;;;21.60;93.40;;;;;;5090577;28;20449;-84
2021/08/01 01:26:13;;;;;;;3.90;1.15;;;21.50;94.10;;;;;;5090022;28;20385;-84
2021/08/01 01:28:56;;;;;;;2.63;1.20;;;21.50;94.50;;;;;;5090300;28;20483;-84
2021/08/01 01:31:47;;;;;;;2.80;1.10;;;21.40;94.20;;;;;;5091049;28;20955;-84
2021/08/01 01:34:16;;;;;;;4.70;1.35;;;21.50;94.80;;;;;;5090842;28;20399;-84
2021/08/01 01:36:46;;;;;;;4.07;1.30;;;21.50;95.00;;;;;;5091075;28;20377;-84
2021/08/01 01:39:14;;;;;;;4.35;1.30;;;21.50;94.90;;;;;;5090911;28;20408;-84
2021/08/01 01:41:46;;;;;;;4.43;1.35;;;21.70;94.30;;;;;;5090010;28;20478;-84
2021/08/01 01:44:14;;;;;;;5.90;1.38;;;21.70;94.20;;;;;;5090701;28;20368;-84
2021/08/01 01:46:42;;;;;;;4.40;1.13;;;21.80;94.00;;;;;;5090283;28;20400;-84
2021/08/01 01:49:11;;;;;;;3.42;1.25;;;21.90;93.90;;;;;;5090607;28;20438;-84
2021/08/01 01:51:38;;;;;;;7.80;1.58;;;21.90;94.00;;;;;;5090908;28;20384;-84
2021/08/01 01:54:09;;;;;;;2.60;1.13;;;22.00;94.10;;;;;;5090901;28;20855;-84
2021/08/01 01:56:37;;;;;;;5.13;1.48;;;22.30;93.60;;;;;;5091005;28;20376;-84
2021/08/01 01:59:04;;;;;;;3.90;1.48;;;22.60;92.60;;;;;;5092492;28;20392;-84
2021/08/01 02:01:32;;;;;;;4.57;1.55;;;22.90;91.70;;;;;;5072904;28;20917;-84
2021/08/01 02:03:59;;;;;;;3.50;1.40;;;23.00;90.80;;;;;;5090672;28;20804;-84
2021/08/01 02:06:26;;;;;;;5.45;1.35;;;23.10;90.50;;;;;;5090619;28;20408;-83
2021/08/01 02:09:11;;;;;;;5.50;1.70;;;23.30;90.00;;;;;;5090409;28;20874;-83
2021/08/01 02:11:59;;;;;;;3.58;1.35;;;23.30;90.00;;;;;;5090582;28;20384;-84
2021/08/01 02:14:43;;;;;;;6.45;1.50;;;23.30;89.90;;;;;;5090482;28;20793;-84
2021/08/01 02:17:13;;;;;;;4.07;1.50;;;23.30;90.50;;;;;;5092702;28;20396;-83
2021/08/01 02:19:43;;;;;;;3.75;1.20;;;23.30;90.20;;;;;;5087830;28;20385;-83
2021/08/01 02:22:11;;;;;;;6.03;1.40;;;23.30;89.70;;;;;;5088811;28;20462;-85
2021/08/01 02:24:39;;;;;;;2.55;1.40;;;23.40;90.10;;;;;;5088962;28;20886;-83
2021/08/01 02:27:08;;;;;;;4.07;1.23;;;23.50;90.20;;;;;;5084521;28;20428;-82
2021/08/01 02:29:35;;;;;;;7.00;1.23;;;23.50;88.50;;;;;;5089478;28;20384;-84
2021/08/01 02:32:02;;;;;;;4.47;1.33;;;23.60;88.10;;;;;;5087213;28;21482;-84
2021/08/01 02:34:30;;;;;;;4.18;1.30;;;23.60;86.90;;;;;;5089243;28;20521;-84
2021/08/01 02:36:59;;;;;;;4.47;1.38;;;23.60;85.40;;;;;;5090978;28;20862;-83
2021/08/01 02:39:26;;;;;;;7.03;1.23;;;23.60;86.50;;;;;;5072040;28;20484;-84
2021/08/01 02:41:54;;;;;;;5.82;1.40;;;23.60;87.20;;;;;;5095011;28;20484;-84
2021/08/01 02:44:35;;;;;;;2.97;1.13;;;23.70;85.50;;;;;;5085727;28;20787;-83
2021/08/01 02:47:05;;;;;;;2.83;1.17;;;23.80;85.20;;;;;;5074232;28;20394;-84
2021/08/01 02:49:37;;;;;;;3.92;1.17;;;23.70;83.60;;;;;;5068475;28;20396;-84
2021/08/01 02:52:06;;;;;;;3.70;1.00;;;23.60;81.50;;;;;;5068462;28;20389;-83
2021/08/01 02:54:34;;;;;;;3.22;1.10;;;23.50;83.40;;;;;;5060645;28;20394;-83
2021/08/01 02:57:06;;;;;;;5.15;1.10;;;23.50;83.80;;;;;;5066072;28;20456;-83
2021/08/01 02:59:35;;;;;;;5.35;1.30;;;23.50;84.50;;;;;;5067645;28;20429;-84
2021/08/01 03:02:03;;;;;;;3.33;1.13;;;23.40;85.20;;;;;;5051532;28;20405;-82
2021/08/01 03:04:30;;;;;;;2.83;1.13;;;23.20;83.20;;;;;;5068702;28;20386;-83
2021/08/01 03:06:57;;;;;;;3.58;1.10;;;23.10;83.40;;;;;;5067346;28;20544;-82
2021/08/01 03:09:25;;;;;;;7.78;1.20;;;23.10;83.30;;;;;;5069823;28;20957;-82
2021/08/01 03:11:52;;;;;;;2.70;1.20;;;23.20;81.80;;;;;;5068900;28;20393;-83
2021/08/01 03:14:20;;;;;;;5.47;1.20;;;23.20;82.10;;;;;;5071581;28;20393;-83
2021/08/01 03:16:46;;;;;;;3.90;1.33;;;23.00;82.90;;;;;;5087393;28;20394;-84
2021/08/01 03:19:13;;;;;;;4.90;1.40;;;22.90;83.40;;;;;;5069838;28;20879;-84
2021/08/01 03:21:40;;;;;;;3.87;1.40;;;22.70;83.60;;;;;;5069900;28;20516;-83
2021/08/01 03:24:07;;;;;;;4.67;1.73;;;22.50;83.50;;;;;;5069477;28;20872;-83
2021/08/01 03:26:37;;;;;;;8.20;1.70;;;22.30;86.00;;;;;;5072134;28;20481;-82
2021/08/01 03:29:04;;;;;;;3.20;1.30;;;22.00;86.90;;;;;;5067628;28;20836;-84
2021/08/01 03:31:31;;;;;;;4.27;1.53;;;21.90;87.10;;;;;;5069137;28;20411;-84
2021/08/01 03:33:58;;;;;;;3.47;1.55;;;21.90;86.70;;;;;;5063421;28;20753;-84
2021/08/01 03:36:25;;;;;;;6.45;1.70;;;21.70;87.80;;;;;;5067649;28;20428;-84
2021/08/01 03:38:52;;;;;;;6.80;1.70;;;21.50;89.70;;;;;;5068197;28;20378;-84
2021/08/01 03:41:19;;;;;;;3.63;1.67;;;21.50;89.60;;;;;;5072657;28;20412;-85
2021/08/01 03:43:46;;;;;;;3.17;1.65;;;21.40;88.30;;;;;;5073206;28;20435;-84
2021/08/01 03:46:13;;;;;;;4.03;1.48;;;21.40;89.00;;;;;;5071102;28;20406;-84
2021/08/01 03:48:40;;;;;;;6.63;1.73;;;21.20;90.40;;;;;;5072950;28;20384;-84
2021/08/01 03:51:07;;;;;;;5.85;1.48;;;21.10;90.00;;;;;;5074020;28;20954;-84
2021/08/01 03:53:34;;;;;;;3.65;1.23;;;21.00;88.90;;;;;;5073669;28;20370;-84
2021/08/01 03:56:05;;;;;;;2.50;1.25;;;21.10;88.80;;;;;;5070899;28;20451;-83
2021/08/01 03:58:32;;;;;;;9.25;1.60;;;20.90;88.30;;;;;;5088283;28;20405;-83
2021/08/01 04:00:59;;;;;;;2.70;1.05;;;20.90;88.80;;;;;;5072747;28;20467;-84
2021/08/01 04:03:26;;;;;;;2.35;1.10;;;20.90;87.10;;;;;;5070565;28;20876;-84
2021/08/01 04:05:54;;;;;;;3.45;1.30;;;20.80;88.10;;;;;;5073037;28;20374;-85
2021/08/01 04:08:21;;;;;;;2.13;0.98;;;20.70;87.80;;;;;;5071749;28;20418;-84
2021/08/01 04:10:48;;;;;;;4.55;1.08;;;20.60;88.50;;;;;;5072189;28;20480;-84
2021/08/01 04:13:15;;;;;;;4.30;0.60;;;20.50;86.00;;;;;;5071949;28;20421;-83
2021/08/01 04:15:48;;;;;;;3.85;0.70;;;20.50;86.80;;;;;;5074034;28;20417;-86
2021/08/01 04:18:15;;;;;;;2.30;0.68;;;20.30;83.90;;;;;;5072286;28;20404;-84
2021/08/01 04:20:42;;;;;;;1.95;0.40;;;20.20;85.80;;;;;;5070970;28;20515;-85
2021/08/01 04:23:09;;;;;;;3.72;0.40;;;20.00;87.30;;;;;;5071877;28;20450;-85
2021/08/01 04:25:36;;;;;;;3.50;0.50;;;19.90;86.70;;;;;;5079811;28;20405;-85
2021/08/01 04:28:03;;;;;;;3.15;0.50;;;19.70;87.40;;;;;;5083161;28;20745;-84
2021/08/01 04:30:30;;;;;;;3.60;0.40;;;19.70;88.50;;;;;;5084750;28;20370;-83
2021/08/01 04:32:57;;;;;;;2.90;0.60;;;19.70;88.60;;;;;;5086646;28;20427;-84
2021/08/01 04:35:24;;;;;;;3.00;0.40;;;19.60;89.10;;;;;;5086106;28;20390;-85
2021/08/01 04:37:51;;;;;;;2.17;0.30;;;19.60;89.80;;;;;;5078693;28;20480;-85
2021/08/01 04:40:18;;;;;;;2.47;0.50;;;19.60;90.10;;;;;;5072491;28;20444;-85
2021/08/01 04:42:45;;;;;;;1.57;0.30;;;19.60;90.60;;;;;;5073014;28;20414;-85
2021/08/01 04:45:12;;;;;;;2.97;0.47;;;19.80;90.60;;;;;;5057061;28;20866;-85
2021/08/01 04:47:39;;;;;;;0.50;0.20;;;19.80;90.70;;;;;;5053121;28;20476;-84
2021/08/01 04:50:06;;;;;;;2.00;0.30;;;19.80;90.30;;;;;;5067187;28;20456;-85
2021/08/01 04:52:33;;;;;;;2.50;0.40;;;19.60;90.30;;;;;;5070796;28;20879;-85
2021/08/01 04:55:00;;;;;;;1.63;0.20;;;19.40;89.90;;;;;;5071368;28;20436;-85
2021/08/01 04:57:27;;;;;;;3.13;0.38;;;19.30;90.60;;;;;;5070771;28;20397;-86
2021/08/01 04:59:54;;;;;;;1.25;0.40;;;19.20;87.40;;;;;;5072025;28;20389;-88
2021/08/01 05:02:24;;;;;;;2.00;0.20;;;19.10;87.20;;;;;;5071922;28;20416;-86
2021/08/01 05:04:51;;;;;;;1.40;0.10;;;19.00;87.40;;;;;;5061467;28;20398;-86
2021/08/01 05:07:18;;;;;;;0.30;0.17;;;19.00;87.80;;;;;;5051855;28;20421;-86
2021/08/01 05:09:45;;;;;;;0.57;0.20;;;19.00;88.40;;;;;;5071312;28;20386;-86
2021/08/01 05:12:12;;;;;;;0.77;0.10;;;19.00;88.80;;;;;;5072054;28;20894;-86
2021/08/01 05:14:38;;;;;;;0.68;0.20;;;19.00;90.10;;;;;;5072023;28;20399;-85
2021/08/01 05:17:06;;;;;;;0.47;0.13;;;18.90;89.90;;;;;;5071487;28;20514;-84
2021/08/01 05:19:37;;;;;;;1.50;0.15;;;18.80;90.00;;;;;;5070011;28;20386;-82
2021/08/01 05:22:04;;;;;;;2.10;0.20;;;18.70;90.40;;;;;;5071257;28;20511;-82
2021/08/01 05:24:31;;;;;;;0.68;0.20;;;18.70;90.80;;;;;;5070649;28;20389;-82
2021/08/01 05:26:58;;;;;;;0.82;0.10;;;18.60;90.60;;;;;;5070338;28;20394;-83
2021/08/01 05:29:25;;;;;;;0.65;0.20;;;18.60;90.80;;;;;;5070369;28;20394;-81
2021/08/01 05:31:54;;;;;;;0.85;0.05;;;18.60;90.00;;;;;;5069185;28;20400;-82
2021/08/01 05:34:21;;;;;;;0.25;0.10;;;18.60;88.60;;;;;;5068013;28;20389;-83
2021/08/01 05:36:49;;;;;;;1.98;0.20;;;18.50;88.40;;;;;;5070323;28;20405;-84
2021/08/01 05:39:16;;;;;;;3.90;0.20;;;18.40;88.60;;;;;;5069391;28;20403;-83
2021/08/01 05:41:44;;;;;;;0.10;0.10;;;18.30;88.60;;;;;;5070407;28;20405;-84
2021/08/01 05:44:11;;;;;;;0.70;0.10;;;18.30;87.30;;;;;;5070774;28;20390;-84
2021/08/01 05:46:38;;;;;;;1.20;0.10;;;18.20;86.70;;;;;;5066652;28;20435;-85
2021/08/01 05:49:05;;;;;;;1.90;0.30;;;18.10;86.80;;;;;;5065475;28;20389;-84
2021/08/01 05:51:32;;;;;;;0.10;0.10;;;18.10;87.20;;;;;;5052968;28;20410;-85
2021/08/01 05:53:59;;;;;;;0.10;0.10;;;18.00;87.20;;;;;;5052588;28;20397;-88
2021/08/01 05:56:28;;;;;;;8.23;0.40;;;17.90;87.50;;;;;;5068297;28;20981;-89
2021/08/01 05:58:55;;;;;;;2.50;0.20;;;17.90;88.00;;;;;;5071540;28;20501;-90
2021/08/01 06:01:25;;;;;;;1.80;0.20;;;17.80;89.90;;;;;;5072573;28;20409;-91
2021/08/01 06:03:55;;;;;;;2.80;0.30;;;17.80;89.70;;;;;;5053978;28;20444;-91
2021/08/01 06:06:23;;;;;;;3.58;0.32;;;17.80;90.80;;;;;;5071332;28;20398;-91
2021/08/01 06:08:51;;;;;;;0.90;0.30;;;17.80;90.70;;;;;;5071856;28;20414;-92
2021/08/01 06:11:20;;;;;;;0.40;0.10;;;17.70;90.30;;;;;;5073051;28;20377;-89
2021/08/01 06:13:47;;;;;;;0.22;0.20;;;17.60;89.60;;;;;;5073839;28;20789;-92
2021/08/01 06:16:15;;;;;;;0.70;0.20;;;17.50;89.40;;;;;;5074701;28;20383;-92
2021/08/01 06:18:43;;;;;;;1.10;0.20;;;17.40;90.00;;;;;;5074057;28;20453;-91
2021/08/01 06:21:16;;;;;;;0.30;0.20;;;17.40;89.80;;;;;;5085009;28;20402;-90
2021/08/01 06:23:51;;;;;;;0.68;0.38;;;17.30;90.40;;;;;;5072287;28;20418;-92
2021/08/01 06:26:21;;;;;;;0.28;0.25;;;17.30;90.10;;;;;;5071661;28;20398;-93
2021/08/01 06:28:49;;;;;;;0.30;0.30;;;17.30;90.50;;;;;;5051976;28;20402;-91
2021/08/01 06:31:16;;;;;;;0.73;0.20;;;17.30;90.40;;;;;;5069623;28;20396;-90
2021/08/01 06:33:44;;;;;;;0.30;0.28;;;17.30;90.70;;;;;;5070488;28;20915;-92
2021/08/01 06:36:13;;;;;;;0.20;0.20;;;17.30;90.80;;;;;;5054134;28;20387;-91
2021/08/01 06:38:42;;;;;;;1.92;0.30;;;17.30;91.20;;;;;;5071204;28;20374;-90
2021/08/01 06:41:10;;;;;;;0.80;0.20;;;17.20;90.70;;;;;;5070655;28;20865;-92
2021/08/01 06:43:37;;;;;;;1.17;0.20;;;17.30;90.50;;;;;;5070113;28;20398;-91
2021/08/01 06:46:05;;;;;;;0.85;0.20;;;17.30;90.30;;;;;;5076935;28;20391;-91
2021/08/01 06:48:32;;;;;;;0.68;0.20;;;17.30;90.20;;;;;;5106364;28;20392;-91
2021/08/01 06:50:59;;;;;;;0.50;0.30;;;17.30;90.00;;;;;;5092522;28;20386;-92
2021/08/01 06:53:27;;;;;;;1.48;0.30;;;17.20;90.60;;;;;;5099879;28;20824;-91
2021/08/01 06:55:54;;;;;;;0.60;0.40;;;17.10;90.60;;;;;;5089860;28;20463;-90
2021/08/01 06:58:21;;;;;;;0.40;0.20;;;17.20;90.80;;;;;;5080984;28;20364;-91
2021/08/01 07:00:49;;;;;;;1.63;0.22;;;17.10;90.70;;;;;;5070490;28;20404;-91
2021/08/01 07:03:17;;;;;;;0.60;0.20;;;17.00;90.60;;;;;;5091518;28;21056;-93
2021/08/01 07:05:44;;;;;;;0.43;0.20;;;17.00;90.00;;;;;;5090452;28;20385;-91
2021/08/01 07:08:11;;;;;;;0.20;0.10;;;17.00;89.30;;;;;;5091660;28;20518;-90
2021/08/01 07:10:39;;;;;;;0.50;0.20;;;17.00;88.70;;;;;;5090910;28;20380;-92
2021/08/01 07:13:07;;;;;;;0.90;0.20;;;16.90;89.40;;;;;;5090648;28;20479;-92
2021/08/01 07:15:37;;;;;;;1.00;0.25;;;16.90;88.60;;;;;;5088931;28;20418;-93
2021/08/01 07:18:05;;;;;;;1.10;0.32;;;16.90;89.90;;;;;;5091044;28;20851;-92
2021/08/01 07:20:34;;;;;;;0.60;0.30;;;16.80;89.20;;;;;;5090942;28;20491;-90
2021/08/01 07:23:01;;;;;;;1.58;0.50;;;16.80;89.50;;;;;;5090981;28;20395;-88
2021/08/01 07:25:28;;;;;;;0.50;0.20;;;16.80;90.00;;;;;;5090429;28;20753;-91
2021/08/01 07:27:55;;;;;;;0.80;0.50;;;16.70;90.40;;;;;;5091574;28;20479;-89
2021/08/01 07:30:25;;;;;;;0.75;0.50;;;16.70;90.10;;;;;;5092128;28;20392;-93
2021/08/01 07:32:52;;;;;;;1.23;0.40;;;16.70;90.50;;;;;;5090839;28;20392;-93
2021/08/01 07:35:19;;;;;;;0.45;0.40;;;16.60;90.50;;;;;;5091114;28;20388;-92
2021/08/01 07:37:46;;;;;;;0.60;0.35;;;16.60;90.70;;;;;;5091522;28;20889;-91
2021/08/01 07:40:16;;;;;;;0.60;0.30;;;16.60;90.50;;;;;;5058884;28;20388;-93
2021/08/01 07:42:43;;;;;;;1.63;0.32;;;16.50;91.00;;;;;;5097019;28;20404;-92
2021/08/01 07:45:43;;;;;;;0.82;0.30;;;16.50;91.20;;;;;;5094082;28;20373;-92
2021/08/01 07:48:03;;;;;;;0.55;0.30;;;16.40;91.10;;;;;;5098529;28;20404;-91
2021/08/01 07:50:33;;;;;;;1.87;0.30;;;16.40;91.50;;;;;;5092784;28;20394;-95
2021/08/01 07:53:00;;;;;;;0.65;0.40;;;16.40;91.40;;;;;;5074725;28;20380;-94
2021/08/01 07:55:27;;;;;;;0.88;0.55;;;16.30;91.50;;;;;;5090778;28;20908;-94
2021/08/01 07:57:56;;;;;;;1.60;0.40;;;16.30;91.70;;;;;;5091765;28;20372;-90
2021/08/01 08:00:23;;;;;;;0.35;0.30;;;16.30;91.80;;;;;;5105350;28;20370;-92
2021/08/01 08:02:50;;;;;;;0.90;0.68;;;16.30;92.20;;;;;;5104587;28;20431;-94
2021/08/01 08:05:17;;;;;;;0.90;0.45;;;16.20;92.10;;;;;;5080520;28;20373;-94
2021/08/01 08:07:44;;;;;;;0.82;0.50;;;16.20;92.20;;;;;;5091105;28;20853;-94
2021/08/01 08:10:12;;;;;;;2.73;0.83;;;16.20;92.30;;;;;;5094439;28;20373;-92
2021/08/01 08:12:39;;;;;;;1.00;1.00;;;16.20;92.30;;;;;;5082609;28;20422;-94
2021/08/01 08:15:08;;;;;;;0.80;0.80;;;16.20;92.70;;;;;;5074780;28;20855;-94
2021/08/01 08:17:35;;;;;;;1.00;0.80;;;16.20;92.90;;;;;;5087777;28;20481;-95
2021/08/01 08:20:05;;;;;;;4.70;0.60;;;16.10;93.10;;;;;;5075572;28;20394;-93
2021/08/01 08:22:32;;;;;;;1.60;0.60;;;16.10;93.10;;;;;;5105151;28;20410;-94
2021/08/01 08:24:59;;;;;;;0.88;0.82;;;16.10;93.20;;;;;;5095059;28;20383;-95
2021/08/01 08:27:26;;;;;;;1.23;0.90;;;16.10;93.30;;;;;;5096245;28;20483;-93
2021/08/01 08:29:53;;;;;;;0.80;0.70;;;16.10;93.20;;;;;;5077329;28;20396;-94
2021/08/01 08:32:21;;;;;;;1.10;0.80;;;16.10;93.40;;;;;;5097835;28;20388;-91
2021/08/01 08:34:48;;;;;;;1.80;0.73;;;16.00;93.50;;;;;;5095821;28;20463;-92
2021/08/01 08:37:15;;;;;;;0.90;0.50;;;16.00;93.50;;;;;;5079224;28;20396;-91
2021/08/01 08:39:42;;;;;;;0.55;0.55;;;16.00;93.40;;;;;;5115186;28;20379;-91
2021/08/01 08:42:09;;;;;;;0.63;0.40;;;16.00;93.40;;;;;;5088955;28;20407;-92
2021/08/01 08:44:50;;;;;;;3.50;1.73;;;16.00;93.60;;;;;;5097103;28;20437;-94
2021/08/01 08:47:19;;;;;;;4.03;1.40;;;15.90;93.70;;;;;;5079649;28;20419;-90
2021/08/01 08:49:50;;;;;;;11.18;1.95;;;15.80;99.90;;;;;;5075096;28;20382;-92
2021/08/01 08:52:17;;;;;;;12.20;2.22;;;15.40;99.90;;;;;;5074081;28;20378;-92
2021/08/01 08:54:50;;;;;;;14.70;2.63;;;14.90;99.90;;;;;;5091228;28;20372;-91
2021/08/01 08:57:26;;;;;;;14.50;2.50;;;14.50;99.90;;;;;;5077465;28;20481;-89
2021/08/01 09:00:04;;;;;;;14.38;2.30;;;14.20;99.90;;;;;;5052613;28;20413;-88
2021/08/01 09:02:31;;;;;;;13.88;2.67;;;13.90;99.90;;;;;;5070557;28;20510;-89
2021/08/01 09:04:58;;;;;;;16.20;2.40;;;13.70;99.90;;;;;;5072557;28;20431;-89
2021/08/01 09:07:26;;;;;;;12.98;2.20;;;13.40;99.90;;;;;;5072512;28;20374;-90
2021/08/01 09:09:54;;;;;;;11.98;2.63;;;13.20;99.90;;;;;;5072855;28;20457;-87
2021/08/01 09:12:27;;;;;;;12.55;2.05;;;13.00;99.90;;;;;;5076304;28;20400;-86
2021/08/01 09:15:12;;;;;;;13.15;2.30;;;12.90;99.90;;;;;;5063685;28;20466;-89
2021/08/01 09:17:40;;;;;;;11.60;2.40;;;12.70;99.90;;;;;;5057434;28;20368;-90
2021/08/01 09:20:25;;;;;;;13.40;2.33;;;12.70;99.90;;;;;;5071493;28;20437;-87
2021/08/01 09:23:06;;;;;;;13.60;2.00;;;12.60;99.90;;;;;;5072816;28;20394;-87
2021/08/01 09:25:42;;;;;;;14.02;2.28;;;12.50;99.90;;;;;;5072506;28;20892;-90
2021/08/01 09:28:21;;;;;;;12.38;2.58;;;12.40;99.90;;;;;;5062100;28;20391;-88
2021/08/01 09:30:51;;;;;;;11.02;2.35;;;12.50;99.90;;;;;;5052421;28;20421;-87
2021/08/01 09:33:34;;;;;;;13.40;3.13;;;12.50;99.90;;;;;;5055610;28;20375;-88
2021/08/01 09:36:09;;;;;;;9.50;1.77;;;12.50;99.90;;;;;;5069750;28;20853;-88
2021/08/01 09:38:57;;;;;;;14.73;1.85;;;12.60;99.90;;;;;;5048123;28;20410;-90
2021/08/01 09:41:26;;;;;;;15.68;2.58;;;12.50;99.90;;;;;;5054741;28;20404;-88
2021/08/01 09:44:00;;;;;;;13.85;3.38;;;12.60;99.90;;;;;;5066686;28;20390;-90
2021/08/01 09:46:45;;;;;;;12.77;1.95;;;12.60;99.90;;;;;;5062114;28;20404;-90
2021/08/01 09:49:17;;;;;;;13.73;2.45;;;12.50;99.90;;;;;;5079129;28;20392;-90
2021/08/01 09:51:46;;;;;;;10.57;1.87;;;12.50;99.90;;;;;;5074605;28;20391;-89
2021/08/01 09:54:15;;;;;;;9.60;1.70;;;12.50;99.90;;;;;;5094185;28;20418;-89
2021/08/01 09:56:59;;;;;;;8.45;1.58;;;12.50;99.90;;;;;;5094239;28;20412;-91
2021/08/01 09:59:31;;;;;;;4.72;1.52;;;12.50;99.90;;;;;;5081593;28;20376;-91
2021/08/01 10:02:00;;;;;;;11.00;1.60;;;12.60;99.90;;;;;;5092012;28;20408;-90
2021/08/01 10:04:34;;;;;;;7.90;1.90;;;12.50;99.90;;;;;;5095498;28;20405;-90
2021/08/01 10:07:07;;;;;;;12.05;1.83;;;12.50;99.90;;;;;;5095756;28;20434;-89
2021/08/01 10:09:41;;;;;;;9.50;1.83;;;12.40;99.90;;;;;;5097788;28;20408;-89
2021/08/01 10:12:09;;;;;;;13.30;1.75;;;12.30;99.90;;;;;;5096227;28;21082;-90
2021/08/01 10:14:38;;;;;;;12.13;1.90;;;12.20;99.90;;;;;;5093818;28;20478;-88
2021/08/01 10:17:09;;;;;;;10.48;1.70;;;12.20;99.90;;;;;;5079110;28;20423;-88
2021/08/01 10:19:36;;;;;;;7.03;1.60;;;12.30;99.90;;;;;;5097778;28;20404;-86
2021/08/01 10:22:09;;;;;;;7.45;1.40;;;12.20;99.90;;;;;;5098826;28;20392;-90
2021/08/01 10:25:00;;;;;;;10.40;1.98;;;12.10;99.90;;;;;;5103514;28;20384;-87
2021/08/01 10:27:28;;;;;;;9.65;1.77;;;12.00;99.90;;;;;;5080017;28;20383;-91
2021/08/01 10:29:56;;;;;;;8.73;1.52;;;12.00;99.90;;;;;;5098895;28;20391;-89
2021/08/01 10:32:27;;;;;;;6.60;1.38;;;12.00;99.90;;;;;;5095816;28;20392;-89
2021/08/01 10:35:12;;;;;;;7.10;1.38;;;11.90;99.90;;;;;;5093992;28;20419;-86
2021/08/01 10:37:49;;;;;;;10.13;1.50;;;11.90;99.90;;;;;;5075529;28;20392;-84
2021/08/01 10:40:19;;;;;;;7.55;1.30;;;11.80;99.90;;;;;;5094002;28;20425;-85
2021/08/01 10:43:09;;;;;;;9.13;1.75;;;11.90;99.90;;;;;;5093141;28;20396;-84
2021/08/01 10:45:37;;;;;;;7.95;1.27;;;11.80;99.90;;;;;;5094815;28;20740;-87
2021/08/01 10:48:07;;;;;;;8.50;2.00;;;11.90;99.90;;;;;;5100100;28;20412;-85
2021/08/01 10:50:35;;;;;;;6.97;1.60;;;11.90;99.90;;;;;;5087026;28;20388;-85
2021/08/01 10:53:21;;;;;;;6.50;1.67;;;11.90;99.90;;;;;;5072233;28;20836;-86
2021/08/01 10:55:52;;;;;;;10.13;2.58;;;11.90;99.90;;;;;;5083694;28;20376;-85
2021/08/01 10:58:20;;;;;;;11.35;2.20;;;12.00;99.90;;;;;;5090689;28;20426;-85
2021/08/01 11:01:00;;;;;;;7.80;1.95;;;12.10;99.90;;;;;;5066972;28;20384;-85
2021/08/01 11:03:32;;;;;;;7.68;1.40;;;12.10;99.90;;;;;;5090473;28;20396;-85
2021/08/01 11:05:59;;;;;;;8.07;1.70;;;12.00;99.90;;;;;;5091989;28;20400;-85
2021/08/01 11:08:27;;;;;;;13.75;1.92;;;12.00;99.90;;;;;;5072344;28;21015;-85
2021/08/01 11:11:17;;;;;;;9.35;1.40;;;12.10;99.90;;;;;;5092507;28;20473;-85
2021/08/01 11:13:48;;;;;;;5.30;1.23;;;12.00;99.90;;;;;;5092066;28;20463;-82
2021/08/01 11:16:31;;;;;;;8.85;1.00;;;12.00;99.90;;;;;;5090030;28;20386;-86
2021/08/01 11:19:02;;;;;;;3.58;1.02;;;11.90;99.90;;;;;;5072909;28;20464;-86
2021/08/01 11:21:39;;;;;;;6.85;0.90;;;11.80;99.90;;;;;;5094287;28;20428;-85
2021/08/01 11:24:07;;;;;;;4.80;1.08;;;11.80;99.90;;;;;;5089337;28;20807;-84
2021/08/01 11:26:35;;;;;;;4.68;1.02;;;11.80;99.90;;;;;;5093149;28;20405;-84
2021/08/01 11:29:10;;;;;;;5.38;1.10;;;11.70;99.90;;;;;;5091607;28;20855;-84
2021/08/01 11:31:39;;;;;;;3.83;1.10;;;11.70;99.90;;;;;;5093235;28;20400;-83
2021/08/01 11:34:32;;;;;;;4.15;0.70;;;11.70;99.90;;;;;;5091214;28;20755;-84
2021/08/01 11:37:19;;;;;;;4.15;1.10;;;11.70;99.90;;;;;;5071908;28;20917;-89
2021/08/01 11:39:58;;;;;;;7.60;1.40;;;11.70;99.90;;;;;;5093350;28;20403;-85
2021/08/01 11:42:30;;;;;;;4.50;0.73;;;11.50;99.90;;;;;;5093026;28;20408;-83
2021/08/01 11:45:06;;;;;;;5.07;0.82;;;11.40;99.90;;;;;;5090004;28;20821;-84
2021/08/01 11:47:44;;;;;;;4.28;0.80;;;11.40;99.90;;;;;;5079121;28;20401;-87
2021/08/01 11:50:27;;;;;;;3.92;0.95;;;11.40;99.90;;;;;;5073506;28;20428;-86
2021/08/01 11:52:55;;;;;;;5.00;0.85;;;11.30;99.90;;;;;;5074090;28;20396;-87
2021/08/01 11:55:23;;;;;;;3.42;0.82;;;11.30;99.90;;;;;;5074818;28;20397;-86
2021/08/01 11:57:53;;;;;;;5.40;1.20;;;11.20;99.90;;;;;;5055989;28;20528;-88
2021/08/01 12:00:26;;;;;;;5.15;0.80;;;11.10;99.90;;;;;;5075400;28;20398;-87
2021/08/01 12:02:57;;;;;;;5.25;0.95;;;11.00;99.90;;;;;;5068219;28;20889;-84
2021/08/01 12:05:49;;;;;;;2.95;0.82;;;11.00;99.90;;;;;;5075882;28;20471;-87
2021/08/01 12:08:33;;;;;;;1.63;0.68;;;10.90;99.90;;;;;;5081487;28;20438;-84
2021/08/01 12:11:12;;;;;;;4.22;0.85;;;11.00;99.90;;;;;;5063695;28;20537;-86
2021/08/01 12:13:40;;;;;;;2.90;0.63;;;11.00;99.90;;;;;;5048413;28;20968;-85
2021/08/01 12:16:20;;;;;;;6.57;1.13;;;10.90;99.90;;;;;;5041775;28;20413;-85
2021/08/01 12:18:48;;;;;;;4.20;0.82;;;10.90;99.90;;;;;;5063710;28;20377;-85
2021/08/01 12:21:38;;;;;;;4.07;1.27;;;10.80;99.90;;;;;;5072510;28;20829;-85
2021/08/01 12:24:07;;;;;;;5.28;1.00;;;10.70;99.90;;;;;;5065920;28;20393;-85
2021/08/01 12:26:41;;;;;;;4.57;0.80;;;10.70;99.90;;;;;;5074851;28;20430;-85
2021/08/01 12:29:09;;;;;;;4.10;0.75;;;10.70;99.90;;;;;;5073353;28;20377;-86
2021/08/01 12:31:37;;;;;;;3.67;0.80;;;10.60;99.90;;;;;;5066495;28;20394;-85
2021/08/01 12:34:04;;;;;;;2.50;0.82;;;10.50;99.90;;;;;;5050507;28;20525;-86
2021/08/01 12:36:31;;;;;;;2.63;0.73;;;10.40;99.90;;;;;;5068069;28;20378;-86
2021/08/01 12:39:06;;;;;;;5.60;0.98;;;10.40;99.90;;;;;;5066271;28;20895;-86
2021/08/01 12:41:35;;;;;;;4.78;1.08;;;10.40;99.90;;;;;;5062986;28;20553;-86
2021/08/01 12:44:13;;;;;;;5.78;0.80;;;10.40;99.90;;;;;;5061104;28;20500;-87
2021/08/01 12:46:41;;;;;;;4.22;1.00;;;10.30;99.90;;;;;;5062404;28;20874;-85
2021/08/01 12:49:09;;;;;;;2.25;0.73;;;10.30;99.90;;;;;;5060003;28;20730;-86
2021/08/01 12:51:39;;;;;;;7.40;0.90;;;10.20;99.90;;;;;;5073163;28;20783;-85
2021/08/01 12:54:07;;;;;;;4.45;0.90;;;10.20;99.90;;;;;;5072955;28;20381;-86
2021/08/01 12:56:34;;;;;;;3.97;0.93;;;10.20;99.90;;;;;;5064524;28;20430;-86
2021/08/01 12:59:11;;;;;;;4.83;0.80;;;10.20;99.90;;;;;;5067248;28;20394;-86
2021/08/01 13:01:42;;;;;;;3.22;0.80;;;10.10;99.90;;;;;;5071974;28;20935;-86